Time;durP1;ratioP1;P1;durP2;ratioP2;P2;SDS_P1;SDS_P2;PMS_P1;PMS_P2;Temp;Humidity;BMP_temperature;BMP_pressure;BME280_temperature;BME280_humidity;BME280_pressure;Samples;Min_cycle;Max_cycle;Signal;HPM_P1;HPM_P2
2022/11/20 00:01:28;;;;;;;9.20;5.37;;;;;;;18.23;100.00;-18254.72;5094479;28;20219;-61
2022/11/20 00:03:57;;;;;;;8.60;4.83;;;;;;;18.32;100.00;-18256.63;5094507;28;20526;-60
2022/11/20 00:06:25;;;;;;;9.90;4.73;;;;;;;18.40;100.00;-18258.53;5094653;28;20623;-60
2022/11/20 00:08:52;;;;;;;9.93;5.33;;;;;;;18.46;100.00;-18260.09;5094106;28;20267;-59
2022/11/20 00:11:21;;;;;;;11.83;5.70;;;;;;;18.48;100.00;-18260.44;5094087;28;20180;-59
2022/11/20 00:13:50;;;;;;;10.07;6.13;;;;;;;18.40;100.00;-18256.66;5094576;28;20241;-58
2022/11/20 00:16:19;;;;;;;5.53;5.03;;;;;;;18.00;100.00;-18249.09;5094394;28;20204;-59
2022/11/20 00:18:48;;;;;;;14.73;5.67;;;;;;;17.99;100.00;-18248.97;5094523;28;20623;-60
2022/11/20 00:21:17;;;;;;;8.47;5.50;;;;;;;18.06;100.00;-18250.53;5093850;28;20188;-60
2022/11/20 00:23:44;;;;;;;18.60;6.27;;;;;;;18.15;100.00;-18252.69;5093930;28;20631;-59
2022/11/20 00:26:13;;;;;;;10.00;5.17;;;;;;;18.14;100.00;-18252.56;5093595;28;20188;-60
2022/11/20 00:28:40;;;;;;;15.27;6.60;;;;;;;18.22;100.00;-18254.47;5092570;28;20184;-60
2022/11/20 00:31:10;;;;;;;10.40;5.43;;;;;;;18.27;100.00;-18255.53;5093985;28;20579;-60
2022/11/20 00:33:37;;;;;;;5.07;4.47;;;;;;;18.18;100.00;-18253.41;5093297;28;20310;-60
2022/11/20 00:36:07;;;;;;;8.07;5.17;;;;;;;18.16;100.00;-18252.91;5093619;28;20212;-60
2022/11/20 00:38:35;;;;;;;13.53;5.47;;;;;;;18.32;100.00;-18256.63;5093600;28;20608;-59
2022/11/20 00:41:03;;;;;;;10.43;5.70;;;;;;;18.17;100.00;-18253.16;5093302;28;20188;-59
2022/11/20 00:43:30;;;;;;;17.00;4.80;;;;;;;18.39;100.00;-18258.41;5093173;28;20188;-60
2022/11/20 00:45:58;;;;;;;7.10;4.73;;;;;;;18.45;100.00;-18259.72;5093218;28;20184;-60
2022/11/20 00:48:25;;;;;;;10.63;4.67;;;;;;;18.51;100.00;-18261.28;5093473;28;20238;-60
2022/11/20 00:50:52;;;;;;;7.10;5.30;;;;;;;18.60;100.00;-18263.44;5092913;28;20283;-60
2022/11/20 00:53:24;;;;;;;7.93;4.60;;;;;;;18.64;100.00;-18264.41;5093445;28;20558;-60
2022/11/20 00:55:56;;;;;;;5.57;5.13;;;;;;;18.73;100.00;-18266.31;5092971;28;20265;-60
2022/11/20 00:58:23;;;;;;;6.40;4.37;;;;;;;18.74;100.00;-18266.53;5092865;28;20188;-60
2022/11/20 01:00:50;;;;;;;6.63;4.30;;;;;;;18.95;100.00;-18271.69;5092916;28;20194;-59
2022/11/20 01:03:18;;;;;;;5.07;4.40;;;;;;;19.01;100.00;-18273.13;5092570;28;20190;-60
2022/11/20 01:05:45;;;;;;;7.20;4.27;;;;;;;19.05;100.00;-18272.06;5093133;28;20713;-59
2022/11/20 01:08:12;;;;;;;5.53;4.53;;;;;;;18.98;100.00;-17948.34;5093062;28;20206;-60
2022/11/20 01:10:40;;;;;;;5.80;3.90;;;;;;;19.22;100.00;-17953.94;5092803;28;20191;-60
2022/11/20 01:15:51;;;;;;;6.57;3.40;;;;;;;19.38;100.00;-14410.50;5092590;28;20245;-60
2022/11/20 01:18:18;;;;;;;8.57;4.10;;;;;;;19.38;100.00;-13119.72;5092476;28;20180;-60
2022/11/20 01:20:45;;;;;;;12.23;4.73;;;;;;;19.35;100.00;-12796.53;5092481;28;20184;-60
2022/11/20 01:23:12;;;;;;;7.40;4.17;;;;;;;19.35;100.00;-11828.06;5092451;28;20184;-60
2022/11/20 01:25:40;;;;;;;6.23;4.53;;;;;;;19.37;100.00;-11182.41;5092363;28;20184;-60
2022/11/20 01:28:07;;;;;;;7.30;4.00;;;;;;;19.15;100.00;-10856.94;5092706;28;20763;-60
2022/11/20 01:30:34;;;;;;;6.43;4.17;;;;;;;19.23;100.00;-12471.94;5092571;28;20617;-59
2022/11/20 01:33:01;;;;;;;8.23;4.20;;;;;;;19.18;100.00;-12148.53;5092288;28;20227;-61
2022/11/20 01:35:28;;;;;;;10.77;4.27;;;;;;;18.55;100.00;-11817.38;5092299;28;20184;-60
2022/11/20 01:37:55;;;;;;;4.97;4.50;;;;;;;19.24;100.00;-11503.72;5092386;28;20547;-60
2022/11/20 01:40:22;;;;;;;7.37;4.60;;;;;;;19.34;100.00;-11505.03;5092319;28;20188;-60
2022/11/20 01:46:01;;;;;;;10.27;3.97;;;;;;;19.45;100.00;-10860.47;5092161;28;20313;-60
2022/11/20 01:48:34;;;;;;;5.47;4.03;;;;;;;19.46;100.00;-9891.34;5092143;28;20271;-61
2022/11/20 01:51:03;;;;;;;10.47;5.07;;;;;;;19.48;100.00;-10214.63;5092328;28;20191;-60
2022/11/20 01:53:35;;;;;;;6.97;4.00;;;;;;;19.47;100.00;-8921.91;5092240;28;20555;-60
2022/11/20 01:56:04;;;;;;;7.03;4.60;;;;;;;19.44;100.00;-8598.38;5092281;28;20578;-60
2022/11/20 01:58:36;;;;;;;7.30;3.87;;;;;;;19.41;100.00;-9567.66;5091924;28;20180;-60
2022/11/20 02:01:05;;;;;;;7.83;4.43;;;;;;;19.26;100.00;-10858.19;5092545;28;20760;-60
2022/11/20 02:03:32;;;;;;;15.33;4.50;;;;;;;19.33;100.00;-11181.91;5092174;28;20184;-60
2022/11/20 02:06:08;;;;;;;12.27;4.80;;;;;;;19.28;100.00;-10212.50;5091992;28;20198;-61
2022/11/20 02:08:36;;;;;;;9.13;4.00;;;;;;;19.31;100.00;-11827.50;5091736;28;20239;-61
2022/11/20 02:11:03;;;;;;;6.40;3.97;;;;;;;19.38;100.00;-12474.19;5092326;28;20198;-59
2022/11/20 02:13:45;;;;;;;4.80;4.13;;;;;;;19.39;100.00;-10536.75;5092103;28;20651;-61
2022/11/20 02:16:23;;;;;;;8.57;4.50;;;;;;;19.22;100.00;-10211.84;5094760;28;20204;-60
2022/11/20 02:18:51;;;;;;;10.03;4.20;;;;;;;19.25;100.00;-12472.28;5095905;28;20187;-60
2022/11/20 02:21:28;;;;;;;6.63;4.67;;;;;;;19.40;100.00;-12474.47;5096202;28;20227;-60
2022/11/20 02:24:03;;;;;;;11.80;4.70;;;;;;;19.49;100.00;-10860.94;5096160;28;20188;-60
2022/11/20 02:26:32;;;;;;;9.93;4.60;;;;;;;19.54;100.00;-8275.88;5095761;28;20190;-60
2022/11/20 02:29:00;;;;;;;8.07;4.77;;;;;;;19.49;100.00;-8598.81;5095872;28;20188;-60
2022/11/20 02:31:27;;;;;;;8.37;4.70;;;;;;;19.30;100.00;-7304.31;5095717;28;20188;-61
2022/11/20 02:33:58;;;;;;;7.30;4.60;;;;;;;19.57;100.00;-6659.00;5095481;28;20269;-60
2022/11/20 02:36:27;;;;;;;7.57;4.67;;;;;;;19.61;100.00;-6012.13;5095574;28;20204;-60
2022/11/20 02:38:54;;;;;;;8.77;4.20;;;;;;;19.49;100.00;-5040.91;5095600;28;20566;-61
2022/11/20 02:41:31;;;;;;;8.83;4.20;;;;;;;19.54;100.00;-5688.25;5095611;28;20188;-59
2022/11/20 02:43:58;;;;;;;10.40;5.10;;;;;;;19.47;100.00;-6011.53;5095821;28;20194;-60
2022/11/20 02:46:25;;;;;;;8.37;4.93;;;;;;;19.40;100.00;-6658.13;5095742;28;20180;-60
2022/11/20 02:48:52;;;;;;;6.37;4.93;;;;;;;19.49;100.00;-6982.06;5094511;28;20546;-61
2022/11/20 02:51:18;;;;;;;7.97;4.43;;;;;;;19.57;100.00;-7305.94;5095369;28;20190;-60
2022/11/20 02:53:45;;;;;;;11.23;4.30;;;;;;;19.67;100.00;-6012.31;5095625;28;20275;-60
2022/11/20 02:56:12;;;;;;;13.83;4.10;;;;;;;19.69;100.00;-3422.38;5095203;28;20275;-60
2022/11/20 02:58:41;;;;;;;9.87;4.40;;;;;;;19.76;100.00;-2450.47;5095181;28;20189;-60
2022/11/20 03:01:08;;;;;;;7.13;4.47;;;;;;;19.66;100.00;-2126.63;5095455;28;20207;-60
2022/11/20 03:03:35;;;;;;;13.73;4.07;;;;;;;19.52;100.00;-4393.63;5095074;28;20184;-60
2022/11/20 03:06:02;;;;;;;9.20;4.60;;;;;;;19.47;100.00;-7305.34;5095075;28;20227;-60
2022/11/20 03:08:29;;;;;;;10.37;4.20;;;;;;;19.45;100.00;-7951.91;5095358;28;20631;-60
2022/11/20 03:10:56;;;;;;;7.77;4.53;;;;;;;19.46;100.00;-8598.59;5095196;28;20245;-60
2022/11/20 03:13:23;;;;;;;9.33;4.13;;;;;;;19.43;100.00;-7951.78;5094895;28;20184;-60
2022/11/20 03:15:51;;;;;;;6.10;4.20;;;;;;;19.52;100.00;-7305.66;5095128;28;20201;-60
2022/11/20 03:18:18;;;;;;;8.83;4.30;;;;;;;19.54;100.00;-6658.84;5095020;28;20208;-60
2022/11/20 03:20:45;;;;;;;10.07;4.17;;;;;;;19.46;100.00;-7628.63;5094817;28;20194;-60
2022/11/20 03:23:12;;;;;;;10.07;3.70;;;;;;;19.43;100.00;-8921.56;5094715;28;20194;-60
2022/11/20 03:25:38;;;;;;;7.87;4.13;;;;;;;19.40;100.00;-10213.75;5094682;28;20589;-60
2022/11/20 03:28:14;;;;;;;7.93;4.57;;;;;;;19.35;100.00;-10536.28;5094916;28;20606;-60
2022/11/20 03:30:41;;;;;;;7.27;4.00;;;;;;;19.42;100.00;-10214.03;5094805;28;20588;-60
2022/11/20 03:33:09;;;;;;;7.50;4.27;;;;;;;19.38;100.00;-9567.41;5094463;28;20232;-60
2022/11/20 03:35:36;;;;;;;4.83;3.90;;;;;;;19.42;100.00;-9567.81;5094517;28;20188;-60
2022/11/20 03:38:03;;;;;;;14.23;4.60;;;;;;;19.53;100.00;-7952.50;5094465;28;20291;-60
2022/11/20 03:40:30;;;;;;;7.50;3.33;;;;;;;19.61;100.00;-5688.50;5094339;28;20188;-61
2022/11/20 03:42:57;;;;;;;7.53;3.40;;;;;;;19.55;100.00;-4393.66;5094703;28;20188;-60
2022/11/20 03:45:24;;;;;;;8.77;4.17;;;;;;;19.54;100.00;-5041.03;5094560;28;20192;-60
2022/11/20 03:47:51;;;;;;;6.00;4.23;;;;;;;19.47;100.00;-5688.00;5094587;28;20180;-60
2022/11/20 03:50:19;;;;;;;3.73;3.43;;;;;;;19.49;100.00;-5688.06;5094270;28;20188;-60
2022/11/20 03:52:46;;;;;;;6.40;3.67;;;;;;;19.49;100.00;-3746.16;5094448;28;20271;-60
2022/11/20 03:55:13;;;;;;;7.60;3.83;;;;;;;19.47;100.00;-2127.03;5094244;28;20184;-61
2022/11/20 03:57:40;;;;;;;5.70;3.87;;;;;;;19.46;100.00;-2127.03;5094159;28;20208;-60
2022/11/20 04:00:08;;;;;;;4.47;3.20;;;;;;;19.44;100.00;-507.25;5094026;28;20290;-60
2022/11/20 04:02:35;;;;;;;8.33;3.30;;;;;;;19.45;100.00;-183.16;5094268;28;20184;-60
2022/11/20 04:05:02;;;;;;;5.80;3.40;;;;;;;19.47;100.00;-507.09;5094219;28;20699;-60
2022/11/20 04:07:30;;;;;;;8.23;3.13;;;;;;;19.50;100.00;-182.91;5094234;28;20181;-59
2022/11/20 04:09:58;;;;;;;6.13;3.30;;;;;;;19.54;100.00;1114.09;5093853;28;20194;-61
2022/11/20 04:12:24;;;;;;;4.17;3.30;;;;;;;19.56;100.00;2087.22;5093848;28;20190;-60
2022/11/20 04:14:51;;;;;;;8.50;3.90;;;;;;;19.53;100.00;1438.31;5094039;28;20263;-60
2022/11/20 04:17:18;;;;;;;9.97;3.53;;;;;;;19.52;100.00;2411.19;5093534;28;20216;-60
2022/11/20 04:19:45;;;;;;;6.27;3.23;;;;;;;19.54;100.00;1762.72;5093639;28;20184;-60
2022/11/20 04:22:12;;;;;;;7.47;3.43;;;;;;;19.55;100.00;2411.47;5093789;28;20203;-60
2022/11/20 04:24:40;;;;;;;4.43;3.17;;;;;;;19.58;100.00;3709.69;5093852;28;20555;-61
2022/11/20 04:27:07;;;;;;;8.13;3.50;;;;;;;19.51;100.00;4033.41;5093533;28;20191;-60
2022/11/20 04:29:34;;;;;;;5.63;3.40;;;;;;;19.52;100.00;4358.06;5093710;28;20184;-59
2022/11/20 04:32:01;;;;;;;3.97;3.10;;;;;;;19.48;100.00;5655.94;5093412;28;20567;-60
2022/11/20 04:34:28;;;;;;;14.40;3.57;;;;;;;19.56;100.00;6306.69;5093316;28;20229;-60
2022/11/20 04:36:55;;;;;;;6.93;2.90;;;;;;;19.58;100.00;7606.34;5093218;28;20204;-60
2022/11/20 04:39:22;;;;;;;5.67;2.70;;;;;;;19.65;100.00;9232.69;5093117;28;20694;-60
2022/11/20 04:42:28;;;;;;;3.13;2.83;;;;;;;19.71;100.00;11185.34;5093193;28;20232;-61
2022/11/20 04:44:38;;;;;;;6.73;3.20;;;;;;;19.73;100.00;11511.31;5093086;28;20229;-60
2022/11/20 04:47:05;;;;;;;8.60;3.10;;;;;;;19.69;100.00;11510.34;5093427;28;20615;-60
2022/11/20 04:49:32;;;;;;;14.47;3.57;;;;;;;19.74;100.00;12487.84;5093130;28;20188;-60
2022/11/20 04:51:59;;;;;;;9.20;3.10;;;;;;;19.79;100.00;13465.69;5093304;28;20559;-60
2022/11/20 04:54:26;;;;;;;8.50;3.43;;;;;;;19.81;100.00;14443.34;5093026;28;20184;-60
2022/11/20 04:56:54;;;;;;;7.70;2.73;;;;;;;19.87;100.00;16399.97;5092831;28;20211;-60
2022/11/20 04:59:21;;;;;;;7.30;2.97;;;;;;;19.91;100.00;18031.44;5093260;28;20670;-60
2022/11/20 05:01:48;;;;;;;7.03;2.70;;;;;;;19.74;100.00;17047.59;5093175;28;20567;-61
2022/11/20 05:04:15;;;;;;;11.67;3.27;;;;;;;19.81;100.00;16072.16;5092775;28;20194;-60
2022/11/20 05:06:42;;;;;;;10.07;3.63;;;;;;;19.64;100.00;16066.81;5093036;28;20554;-59
2022/11/20 05:09:09;;;;;;;9.53;3.60;;;;;;;19.73;100.00;13789.63;5093095;28;20554;-60
2022/11/20 05:11:36;;;;;;;7.90;3.17;;;;;;;19.76;100.00;14441.91;5092629;28;20184;-60
2022/11/20 05:14:04;;;;;;;8.80;3.50;;;;;;;19.80;100.00;16397.72;5092974;28;20622;-60
2022/11/20 05:16:31;;;;;;;4.80;2.53;;;;;;;19.77;100.00;16722.84;5092939;28;20188;-60
2022/11/20 05:18:58;;;;;;;6.37;3.33;;;;;;;19.68;100.00;15416.53;5092744;28;20208;-59
2022/11/20 05:21:25;;;;;;;12.30;2.80;;;;;;;19.73;100.00;14766.59;5092506;28;20206;-59
2022/11/20 05:23:52;;;;;;;3.73;2.73;;;;;;;19.82;100.00;16398.38;5092814;28;20188;-60
2022/11/20 05:26:21;;;;;;;8.50;3.03;;;;;;;19.86;100.00;18681.94;5092429;28;20188;-59
2022/11/20 05:28:48;;;;;;;7.73;2.70;;;;;;;19.88;100.00;19987.78;5092430;28;20187;-60
2022/11/20 05:31:19;;;;;;;6.37;3.00;;;;;;;19.86;100.00;20966.00;5092460;28;20194;-60
2022/11/20 05:33:46;;;;;;;12.00;3.33;;;;;;;19.76;100.00;20309.28;5092166;28;20224;-60
2022/11/20 05:36:14;;;;;;;7.97;3.17;;;;;;;19.86;100.00;21618.84;5092603;28;20180;-60
2022/11/20 05:38:42;;;;;;;7.13;3.27;;;;;;;19.83;100.00;22923.38;5092496;28;20670;-60
2022/11/20 05:41:11;;;;;;;8.30;2.97;;;;;;;19.89;100.00;24232.78;5092237;28;20194;-60
2022/11/20 05:43:39;;;;;;;6.27;3.10;;;;;;;19.81;100.00;24229.19;5092193;28;20181;-60
2022/11/20 05:46:07;;;;;;;9.60;3.07;;;;;;;19.94;100.00;25868.91;5092221;28;20184;-60
2022/11/20 05:48:37;;;;;;;7.10;3.10;;;;;;;19.94;100.00;25215.38;5092082;28;20274;-59
2022/11/20 05:51:06;;;;;;;4.77;3.30;;;;;;;19.96;100.00;25869.84;5091565;28;20185;-60
2022/11/20 05:53:34;;;;;;;7.13;3.17;;;;;;;19.89;100.00;25539.91;5092323;28;20601;-61
2022/11/20 05:56:02;;;;;;;5.73;3.30;;;;;;;19.91;100.00;24560.19;5092024;28;20185;-60
2022/11/20 05:58:30;;;;;;;7.90;3.30;;;;;;;19.96;100.00;25870.09;5092276;28;20203;-60
2022/11/20 06:01:05;;;;;;;6.47;3.10;;;;;;;19.94;100.00;27830.88;5091880;28;20196;-60
2022/11/20 06:03:32;;;;;;;9.87;3.20;;;;;;;20.07;100.00;29801.31;5092204;28;20183;-60
2022/11/20 06:06:01;;;;;;;10.90;3.13;;;;;;;20.12;100.00;32751.47;5091875;28;20191;-60
2022/11/20 06:08:28;;;;;;;7.73;3.20;;;;;;;20.15;100.00;34719.94;5091988;28;20285;-60
2022/11/20 06:10:55;;;;;;;6.93;3.40;;;;;;;20.11;100.00;36029.16;5092126;28;20188;-60
2022/11/20 06:13:22;;;;;;;8.53;3.10;;;;;;;19.90;100.00;30446.47;5091842;28;20190;-59
2022/11/20 06:15:50;;;;;;;6.47;3.53;;;;;;;20.04;100.00;28817.81;5091800;28;20202;-61
2022/11/20 06:18:18;;;;;;;10.07;3.70;;;;;;;20.07;100.00;30783.25;5091860;28;20265;-60
2022/11/20 06:20:45;;;;;;;11.73;3.50;;;;;;;20.13;100.00;32424.41;5091726;28;20194;-60
2022/11/20 06:23:13;;;;;;;5.70;2.60;;;;;;;20.19;100.00;36033.97;5092048;28;20184;-60
2022/11/20 06:25:41;;;;;;;9.00;3.20;;;;;;;20.16;100.00;36688.44;5091852;28;20570;-60
2022/11/20 06:28:09;;;;;;;11.63;3.33;;;;;;;20.21;100.00;36691.69;5091643;28;20177;-60
2022/11/20 06:30:36;;;;;;;8.37;3.37;;;;;;;20.30;100.00;39651.91;5091492;28;20188;-59
2022/11/20 06:33:03;;;;;;;6.33;2.73;;;;;;;20.24;100.00;44248.94;5091563;28;20319;-60
2022/11/20 06:35:30;;;;;;;8.67;3.40;;;;;;;20.31;100.00;47874.19;5091578;28;20195;-60
2022/11/20 06:37:57;;;;;;;11.50;3.50;;;;;;;20.38;100.00;45904.88;5091764;28;20210;-60
2022/11/20 06:40:25;;;;;;;9.73;3.47;;;;;;;20.63;100.00;54825.38;5090242;28;20723;-60
2022/11/20 06:42:54;;;;;;;7.20;3.50;;;;;;;20.74;100.00;62768.25;5091459;28;20227;-60
2022/11/20 06:45:21;;;;;;;6.47;2.90;;;;;;;20.77;100.00;70060.59;5091855;28;20275;-60
2022/11/20 06:47:48;;;;;;;16.63;3.37;;;;;;;20.95;100.00;75394.25;5091753;28;20188;-60
2022/11/20 06:50:15;;;;;;;11.27;3.17;;;;;;;20.95;100.00;85709.19;5091697;28;20631;-60
2022/11/20 06:52:42;;;;;;;16.57;3.80;;;;;;;21.00;100.00;89383.81;5091737;28;20631;-60
2022/11/20 06:55:09;;;;;;;12.50;3.07;;;;;;;20.97;100.00;89046.41;5091672;28;20188;-60
2022/11/20 06:57:37;;;;;;;9.47;3.17;;;;;;;20.91;100.00;87703.38;5091334;28;20204;-59
2022/11/20 07:00:05;;;;;;;9.60;3.30;;;;;;;20.98;100.00;84713.88;5091446;28;20192;-61
2022/11/20 07:02:33;;;;;;;11.20;3.20;;;;;;;21.03;100.00;94063.50;5094909;28;20639;-60
2022/11/20 07:05:00;;;;;;;8.03;3.23;;;;;;;21.06;100.00;97076.69;5095258;28;20184;-60
2022/11/20 07:07:27;;;;;;;11.93;2.90;;;;;;;21.11;100.00;104785.63;5094028;28;20194;-60
2022/11/20 07:09:53;;;;;;;12.17;3.57;;;;;;;21.24;100.00;108497.53;5095147;28;20184;-60
2022/11/20 07:12:20;;;;;;;10.97;3.63;;;;;;;21.34;100.00;116245.59;5095016;28;20231;-60
2022/11/20 07:14:49;;;;;;;17.77;4.27;;;;;;;21.46;100.00;125700.97;5094896;28;20184;-60
2022/11/20 07:17:15;;;;;;;9.10;3.30;;;;;;;21.42;100.00;141262.94;5094785;28;20199;-60
2022/11/20 07:19:42;;;;;;;6.90;3.10;;;;;;;21.32;100.00;132763.81;5094890;28;20184;-60
2022/11/20 07:22:09;;;;;;;14.27;3.33;;;;;;;21.48;100.00;133135.41;5094822;28;20188;-60
2022/11/20 07:24:36;;;;;;;12.17;3.27;;;;;;;21.49;100.00;138609.56;5094762;28;20190;-60
2022/11/20 07:27:03;;;;;;;5.33;3.20;;;;;;;21.56;100.00;148327.91;5095013;28;20642;-60
2022/11/20 07:29:30;;;;;;;10.43;3.40;;;;;;;21.59;100.00;142045.13;5094905;28;20627;-60
2022/11/20 07:31:59;;;;;;;10.37;4.00;;;;;;;21.73;100.00;143778.25;5094483;28;20222;-60
2022/11/20 07:34:26;;;;;;;7.97;3.50;;;;;;;21.73;100.00;151500.47;5094560;28;20198;-60
2022/11/20 07:36:53;;;;;;;9.60;3.20;;;;;;;21.51;100.00;144510.78;5094497;28;20199;-60
2022/11/20 07:39:19;;;;;;;23.93;4.70;;;;;;;21.60;100.00;128432.31;5094673;28;20245;-60
2022/11/20 07:41:46;;;;;;;6.43;2.87;;;;;;;22.11;100.00;151597.41;5094401;28;20184;-60
2022/11/20 07:44:13;;;;;;;9.90;2.97;;;;;;;22.40;100.00;151668.84;5094338;28;20184;-61
2022/11/20 07:46:40;;;;;;;8.07;3.08;;;;;;;22.39;100.00;151667.56;5094279;28;20216;-60
2022/11/20 07:49:08;;;;;;;13.87;3.50;;;;;;;21.90;100.00;151543.81;5094168;28;20191;-61
2022/11/20 07:51:35;;;;;;;10.83;3.40;;;;;;;21.55;100.00;151455.91;5094269;28;20194;-60
2022/11/20 07:54:02;;;;;;;10.27;3.43;;;;;;;21.57;100.00;144326.59;5094143;28;20187;-59
2022/11/20 07:56:29;;;;;;;7.60;2.90;;;;;;;21.60;100.00;143803.91;5094487;28;20528;-61
2022/11/20 07:58:56;;;;;;;10.13;3.60;;;;;;;21.70;100.00;138600.34;5094330;28;20207;-60
2022/11/20 08:01:23;;;;;;;8.13;3.47;;;;;;;21.69;100.00;130477.84;5094075;28;20271;-60
2022/11/20 08:03:50;;;;;;;10.03;3.33;;;;;;;21.78;100.00;148291.19;5093952;28;20189;-60
2022/11/20 08:06:19;;;;;;;10.93;3.60;;;;;;;21.92;100.00;151547.66;5094236;28;20654;-61
2022/11/20 08:08:46;;;;;;;8.20;3.30;;;;;;;22.43;100.00;151676.47;5094168;28;20206;-60
2022/11/20 08:14:12;;;;;;;14.10;3.22;;;;;;;22.87;100.00;151788.78;5092956;28;20269;-60
2022/11/20 08:16:39;;;;;;;10.70;3.65;;;;;;;22.84;100.00;151781.09;5093741;28;20191;-60
2022/11/20 08:19:06;;;;;;;10.52;3.80;;;;;;;22.85;100.00;151783.66;5093533;28;20214;-60
2022/11/20 08:21:35;;;;;;;10.23;3.97;;;;;;;22.86;100.00;151784.94;5093726;28;20241;-60
2022/11/20 08:24:02;;;;;;;6.97;3.30;;;;;;;22.51;100.00;151696.88;5093878;28;20242;-61
2022/11/20 08:26:29;;;;;;;9.75;3.65;;;;;;;22.48;100.00;151689.25;5093567;28;20192;-60
2022/11/20 08:28:56;;;;;;;6.95;3.53;;;;;;;22.45;100.00;151681.59;5093749;28;20196;-60
2022/11/20 08:31:23;;;;;;;8.17;3.07;;;;;;;22.43;100.00;151676.47;5093490;28;20188;-61
2022/11/20 08:33:51;;;;;;;14.98;3.75;;;;;;;22.62;100.00;151726.22;5093290;28;20231;-61
2022/11/20 08:36:19;;;;;;;9.80;3.67;;;;;;;22.50;100.00;151694.31;5093311;28;20188;-60
2022/11/20 08:38:50;;;;;;;6.63;2.90;;;;;;;22.43;100.00;151676.47;5093511;28;20234;-59
2022/11/20 08:41:27;;;;;;;15.48;4.20;;;;;;;22.57;100.00;151713.50;5093489;28;20184;-60
2022/11/20 08:43:57;;;;;;;14.85;4.40;;;;;;;22.42;100.00;151673.91;5093510;28;20186;-60
2022/11/20 08:46:25;;;;;;;13.20;3.97;;;;;;;22.56;100.00;151709.66;5093170;28;20237;-60
2022/11/20 08:48:52;;;;;;;8.07;3.47;;;;;;;22.39;100.00;151667.56;5093085;28;20184;-60
2022/11/20 08:51:20;;;;;;;16.23;3.60;;;;;;;22.38;100.00;151663.72;5093138;28;20180;-60
2022/11/20 08:53:49;;;;;;;8.85;4.10;;;;;;;22.37;100.00;151662.44;5092960;28;20186;-60
2022/11/20 08:56:16;;;;;;;13.68;4.13;;;;;;;22.16;100.00;151608.88;5093335;28;20600;-60
2022/11/20 08:58:43;;;;;;;13.20;3.23;;;;;;;21.96;100.00;151557.91;5092845;28;20214;-60
2022/11/20 09:01:10;;;;;;;7.63;3.47;;;;;;;21.74;100.00;151504.31;5093223;28;20184;-60
2022/11/20 09:03:37;;;;;;;8.53;3.40;;;;;;;21.74;100.00;151503.03;5093137;28;20691;-61
2022/11/20 09:06:06;;;;;;;13.10;3.87;;;;;;;21.82;100.00;151523.44;5093067;28;20652;-60
2022/11/20 09:08:33;;;;;;;11.30;3.30;;;;;;;21.76;100.00;151508.16;5093183;28;20184;-60
2022/11/20 09:11:01;;;;;;;9.13;3.63;;;;;;;21.79;100.00;151517.06;5092683;28;20188;-61
2022/11/20 09:13:29;;;;;;;14.83;4.13;;;;;;;21.87;100.00;151536.19;5092747;28;20194;-60
2022/11/20 09:15:57;;;;;;;9.33;3.50;;;;;;;21.77;100.00;151510.66;5092655;28;20194;-60
2022/11/20 09:18:28;;;;;;;10.80;3.40;;;;;;;21.72;100.00;151497.97;5092734;28;20204;-60
2022/11/20 09:20:58;;;;;;;12.47;4.20;;;;;;;21.49;100.00;151439.31;5091346;28;20224;-59
2022/11/20 09:23:25;;;;;;;6.90;3.40;;;;;;;21.85;100.00;151531.09;5092710;28;20202;-60
2022/11/20 09:25:52;;;;;;;14.38;3.72;;;;;;;21.69;100.00;151490.28;5092668;28;20290;-60
2022/11/20 09:28:20;;;;;;;9.93;3.83;;;;;;;21.67;100.00;151486.47;5092787;28;20225;-60
2022/11/20 09:30:47;;;;;;;10.03;4.20;;;;;;;21.77;100.00;151510.66;5092567;28;20623;-59
2022/11/20 09:33:14;;;;;;;10.27;3.22;;;;;;;21.75;100.00;151506.88;5092396;28;20231;-59
2022/11/20 09:35:41;;;;;;;16.20;3.70;;;;;;;21.79;100.00;151517.06;5091045;28;20187;-60
2022/11/20 09:38:10;;;;;;;17.40;4.13;;;;;;;21.65;100.00;151480.09;5092500;28;20183;-59
2022/11/20 09:40:40;;;;;;;14.27;4.20;;;;;;;21.69;100.00;151490.28;5092202;28;20183;-60
2022/11/20 09:43:13;;;;;;;17.50;4.05;;;;;;;21.75;100.00;151505.59;5092279;28;20184;-60
2022/11/20 09:45:55;;;;;;;8.13;4.03;;;;;;;21.43;100.00;151426.56;5092426;28;20507;-59
2022/11/20 09:48:43;;;;;;;13.70;4.63;;;;;;;21.57;100.00;151460.97;5092444;28;20176;-60
2022/11/20 09:51:21;;;;;;;10.60;3.60;;;;;;;21.59;100.00;151464.81;5092036;28;20212;-60
2022/11/20 09:54:01;;;;;;;10.03;3.93;;;;;;;21.45;100.00;151429.13;5091926;28;20245;-60
2022/11/20 09:56:29;;;;;;;10.23;4.20;;;;;;;21.44;100.00;151427.84;5092262;28;20206;-60
2022/11/20 09:59:00;;;;;;;9.97;3.87;;;;;;;21.40;100.00;151418.94;5091810;28;20219;-60
2022/11/20 10:01:33;;;;;;;11.97;3.37;;;;;;;21.50;100.00;151441.88;5092141;28;20191;-60
2022/11/20 10:04:03;;;;;;;11.13;4.17;;;;;;;21.47;100.00;151434.25;5091855;28;20195;-60
2022/11/20 10:06:32;;;;;;;13.40;4.07;;;;;;;21.53;100.00;151449.50;5091961;28;20551;-60
2022/11/20 10:09:22;;;;;;;10.67;3.77;;;;;;;21.57;100.00;151460.97;5091766;28;20294;-60
2022/11/20 10:11:58;;;;;;;12.17;4.50;;;;;;;21.67;100.00;151485.22;5091691;28;20206;-60
2022/11/20 10:14:36;;;;;;;17.27;4.20;;;;;;;21.73;100.00;151500.47;5091735;28;20188;-60
2022/11/20 10:17:17;;;;;;;16.63;3.90;;;;;;;21.82;100.00;151524.72;5091704;28;20275;-61
2022/11/20 10:20:02;;;;;;;6.63;3.80;;;;;;;21.87;100.00;151537.47;5091577;28;20203;-59
2022/11/20 10:22:42;;;;;;;10.50;3.50;;;;;;;21.64;100.00;151477.56;5091690;28;20219;-60
2022/11/20 10:25:16;;;;;;;9.40;3.97;;;;;;;21.50;100.00;151441.88;5091491;28;20180;-60
2022/11/20 10:28:24;;;;;;;13.15;3.97;;;;;;;21.84;100.00;151528.53;5091910;28;20180;-60
2022/11/20 10:30:58;;;;;;;8.70;3.73;;;;;;;21.82;100.00;151523.44;5076371;28;20304;-60
2022/11/20 10:33:30;;;;;;;11.03;3.27;;;;;;;21.74;100.00;151503.03;5091470;28;20575;-60
2022/11/20 10:36:07;;;;;;;9.70;3.80;;;;;;;21.78;100.00;151514.50;5092290;28;20191;-60
2022/11/20 10:38:39;;;;;;;16.13;4.50;;;;;;;21.74;100.00;151504.31;5095789;28;20578;-60
2022/11/20 10:41:25;;;;;;;9.40;4.60;;;;;;;21.85;100.00;151531.09;5095642;28;20188;-59
2022/11/20 10:43:59;;;;;;;10.30;4.07;;;;;;;21.81;100.00;151522.16;5095877;28;20547;-60
2022/11/20 10:46:30;;;;;;;12.10;4.00;;;;;;;21.92;100.00;151549.00;5095773;28;20554;-60
2022/11/20 10:48:59;;;;;;;9.27;3.77;;;;;;;21.96;100.00;151559.19;5095756;28;20561;-60
2022/11/20 10:51:36;;;;;;;15.57;3.90;;;;;;;21.93;100.00;151551.53;5095210;28;20662;-60
2022/11/20 10:54:19;;;;;;;10.47;3.70;;;;;;;22.01;100.00;151571.94;5095882;28;20183;-59
2022/11/20 10:56:49;;;;;;;6.97;4.07;;;;;;;21.90;100.00;151543.81;5095502;28;20184;-59
2022/11/20 10:59:49;;;;;;;8.90;3.47;;;;;;;21.84;100.00;151529.81;5095304;28;20247;-60
2022/11/20 11:02:19;;;;;;;15.40;4.03;;;;;;;21.90;100.00;151543.81;5095476;28;20184;-60
2022/11/20 11:04:50;;;;;;;17.10;3.80;;;;;;;21.91;100.00;151546.38;5095147;28;20184;-61
2022/11/20 11:07:21;;;;;;;10.60;4.67;;;;;;;21.90;100.00;151542.59;5095152;28;20187;-60
2022/11/20 11:09:51;;;;;;;11.43;4.10;;;;;;;21.86;100.00;151533.63;5095440;28;20184;-61
2022/11/20 11:12:19;;;;;;;11.93;4.20;;;;;;;21.86;100.00;151534.91;5095563;28;20187;-59
2022/11/20 11:14:48;;;;;;;18.33;4.20;;;;;;;21.78;100.00;151513.22;5095859;28;20194;-59
2022/11/20 11:17:28;;;;;;;7.97;3.72;;;;;;;21.84;100.00;151529.81;5095950;28;20584;-61
2022/11/20 11:20:06;;;;;;;14.07;3.57;;;;;;;21.67;100.00;151485.22;5094972;28;20204;-59
2022/11/20 11:22:35;;;;;;;11.33;3.67;;;;;;;21.67;100.00;151485.22;5094925;28;20237;-60
2022/11/20 11:25:02;;;;;;;20.03;5.93;;;;;;;21.64;100.00;151477.56;5095127;28;20184;-59
2022/11/20 11:27:29;;;;;;;17.90;5.03;;;;;;;21.68;100.00;151487.75;5095072;28;20198;-59
2022/11/20 11:30:13;;;;;;;16.70;5.03;;;;;;;21.62;100.00;151473.72;5094748;28;20187;-60
2022/11/20 11:32:40;;;;;;;18.63;4.60;;;;;;;21.60;100.00;151467.38;5094336;28;20227;-60
2022/11/20 11:35:22;;;;;;;14.17;3.90;;;;;;;21.56;100.00;151457.13;5094568;28;20198;-59